sensor_id;sensor_type;location;lat;lon;timestamp;P1;durP1;ratioP1;P2;durP2;ratioP2
73172;SDS011;61388;54.962;73.394;2022-08-24T00:01:22;35.65;;;21.42;;
73172;SDS011;61388;54.962;73.394;2022-08-24T00:03:48;43.42;;;21.45;;
73172;SDS011;61388;54.962;73.394;2022-08-24T00:06:16;40.45;;;19.98;;
73172;SDS011;61388;54.962;73.394;2022-08-24T00:08:49;39.92;;;18.90;;
73172;SDS011;61388;54.962;73.394;2022-08-24T00:11:15;57.40;;;27.90;;
73172;SDS011;61388;54.962;73.394;2022-08-24T00:13:42;44.33;;;22.27;;
73172;SDS011;61388;54.962;73.394;2022-08-24T00:16:09;39.50;;;22.33;;
73172;SDS011;61388;54.962;73.394;2022-08-24T00:18:35;42.42;;;21.63;;
73172;SDS011;61388;54.962;73.394;2022-08-24T00:21:01;40.75;;;22.25;;
73172;SDS011;61388;54.962;73.394;2022-08-24T00:23:38;45.93;;;21.83;;
73172;SDS011;61388;54.962;73.394;2022-08-24T00:26:04;46.40;;;22.45;;
73172;SDS011;61388;54.962;73.394;2022-08-24T00:28:31;37.03;;;19.65;;
73172;SDS011;61388;54.962;73.394;2022-08-24T00:30:57;43.67;;;20.95;;
73172;SDS011;61388;54.962;73.394;2022-08-24T00:33:23;54.97;;;22.77;;
73172;SDS011;61388;54.962;73.394;2022-08-24T00:35:49;77.33;;;22.03;;
73172;SDS011;61388;54.962;73.394;2022-08-24T00:38:15;69.97;;;23.52;;
73172;SDS011;61388;54.962;73.394;2022-08-24T00:40:51;118.57;;;40.63;;
73172;SDS011;61388;54.962;73.394;2022-08-24T00:43:27;110.55;;;24.08;;
73172;SDS011;61388;54.962;73.394;2022-08-24T00:48:36;87.77;;;26.33;;
73172;SDS011;61388;54.962;73.394;2022-08-24T00:51:15;72.30;;;24.67;;
73172;SDS011;61388;54.962;73.394;2022-08-24T00:53:48;53.35;;;23.77;;
73172;SDS011;61388;54.962;73.394;2022-08-24T00:56:23;54.63;;;20.73;;
73172;SDS011;61388;54.962;73.394;2022-08-24T01:01:32;45.53;;;22.40;;
73172;SDS011;61388;54.962;73.394;2022-08-24T01:03:58;50.50;;;21.52;;
73172;SDS011;61388;54.962;73.394;2022-08-24T01:06:25;64.78;;;27.48;;
73172;SDS011;61388;54.962;73.394;2022-08-24T01:08:52;70.47;;;34.70;;
73172;SDS011;61388;54.962;73.394;2022-08-24T01:11:18;61.10;;;28.55;;
73172;SDS011;61388;54.962;73.394;2022-08-24T01:13:46;58.60;;;24.70;;
73172;SDS011;61388;54.962;73.394;2022-08-24T01:16:13;69.20;;;29.38;;
73172;SDS011;61388;54.962;73.394;2022-08-24T01:18:41;60.28;;;29.05;;
73172;SDS011;61388;54.962;73.394;2022-08-24T01:23:51;59.22;;;25.13;;
73172;SDS011;61388;54.962;73.394;2022-08-24T01:26:30;55.43;;;27.17;;
73172;SDS011;61388;54.962;73.394;2022-08-24T01:28:59;65.05;;;27.58;;
73172;SDS011;61388;54.962;73.394;2022-08-24T01:31:25;67.38;;;31.38;;
73172;SDS011;61388;54.962;73.394;2022-08-24T01:33:52;77.28;;;36.03;;
73172;SDS011;61388;54.962;73.394;2022-08-24T01:39:49;81.27;;;43.67;;
73172;SDS011;61388;54.962;73.394;2022-08-24T01:41:55;92.95;;;43.30;;
73172;SDS011;61388;54.962;73.394;2022-08-24T01:44:23;92.90;;;40.25;;
73172;SDS011;61388;54.962;73.394;2022-08-24T01:46:50;101.93;;;45.35;;
73172;SDS011;61388;54.962;73.394;2022-08-24T01:49:18;84.68;;;40.38;;
73172;SDS011;61388;54.962;73.394;2022-08-24T01:51:45;81.67;;;33.60;;
73172;SDS011;61388;54.962;73.394;2022-08-24T01:54:12;81.10;;;31.75;;
73172;SDS011;61388;54.962;73.394;2022-08-24T01:56:38;99.05;;;34.15;;
73172;SDS011;61388;54.962;73.394;2022-08-24T01:59:05;91.53;;;31.20;;
73172;SDS011;61388;54.962;73.394;2022-08-24T02:01:37;86.65;;;33.13;;
73172;SDS011;61388;54.962;73.394;2022-08-24T02:04:05;84.50;;;33.37;;
73172;SDS011;61388;54.962;73.394;2022-08-24T02:06:33;77.82;;;31.75;;
73172;SDS011;61388;54.962;73.394;2022-08-24T02:09:09;77.43;;;32.25;;
73172;SDS011;61388;54.962;73.394;2022-08-24T02:11:37;83.70;;;34.20;;
73172;SDS011;61388;54.962;73.394;2022-08-24T02:14:04;85.22;;;34.35;;
73172;SDS011;61388;54.962;73.394;2022-08-24T02:16:30;83.10;;;33.90;;
73172;SDS011;61388;54.962;73.394;2022-08-24T02:18:56;108.70;;;37.35;;
73172;SDS011;61388;54.962;73.394;2022-08-24T02:21:22;61.75;;;28.13;;
73172;SDS011;61388;54.962;73.394;2022-08-24T02:23:48;58.88;;;26.90;;
73172;SDS011;61388;54.962;73.394;2022-08-24T02:26:15;55.78;;;27.27;;
73172;SDS011;61388;54.962;73.394;2022-08-24T02:28:41;55.37;;;24.23;;
73172;SDS011;61388;54.962;73.394;2022-08-24T02:31:08;48.90;;;25.60;;
73172;SDS011;61388;54.962;73.394;2022-08-24T02:33:35;50.17;;;22.95;;
73172;SDS011;61388;54.962;73.394;2022-08-24T02:36:08;44.95;;;22.27;;
73172;SDS011;61388;54.962;73.394;2022-08-24T02:38:34;44.85;;;21.58;;
73172;SDS011;61388;54.962;73.394;2022-08-24T02:41:12;45.53;;;22.03;;
73172;SDS011;61388;54.962;73.394;2022-08-24T02:43:38;42.67;;;20.30;;
73172;SDS011;61388;54.962;73.394;2022-08-24T03:59:33;29.13;;;14.88;;
73172;SDS011;61388;54.962;73.394;2022-08-24T04:02:15;27.07;;;15.87;;
73172;SDS011;61388;54.962;73.394;2022-08-24T04:04:41;19.35;;;13.27;;
73172;SDS011;61388;54.962;73.394;2022-08-24T04:07:14;23.63;;;15.63;;
73172;SDS011;61388;54.962;73.394;2022-08-24T04:13:02;20.45;;;15.02;;
73172;SDS011;61388;54.962;73.394;2022-08-24T04:15:39;24.80;;;16.03;;
73172;SDS011;61388;54.962;73.394;2022-08-24T04:18:13;25.45;;;16.65;;
73172;SDS011;61388;54.962;73.394;2022-08-24T04:20:41;31.45;;;16.05;;
73172;SDS011;61388;54.962;73.394;2022-08-24T04:23:14;30.42;;;19.63;;
73172;SDS011;61388;54.962;73.394;2022-08-24T04:25:44;31.77;;;21.73;;
73172;SDS011;61388;54.962;73.394;2022-08-24T04:28:21;37.27;;;27.50;;
73172;SDS011;61388;54.962;73.394;2022-08-24T04:30:48;45.20;;;37.08;;
73172;SDS011;61388;54.962;73.394;2022-08-24T04:33:32;41.92;;;35.83;;
73172;SDS011;61388;54.962;73.394;2022-08-24T04:35:59;49.30;;;33.25;;
73172;SDS011;61388;54.962;73.394;2022-08-24T04:38:29;52.50;;;38.38;;
73172;SDS011;61388;54.962;73.394;2022-08-24T04:41:17;47.00;;;38.03;;
73172;SDS011;61388;54.962;73.394;2022-08-24T04:43:45;53.30;;;36.35;;
73172;SDS011;61388;54.962;73.394;2022-08-24T04:46:14;53.40;;;28.75;;
73172;SDS011;61388;54.962;73.394;2022-08-24T04:48:42;36.05;;;31.40;;
73172;SDS011;61388;54.962;73.394;2022-08-24T04:51:19;34.00;;;30.83;;
73172;SDS011;61388;54.962;73.394;2022-08-24T04:53:55;32.07;;;28.20;;
73172;SDS011;61388;54.962;73.394;2022-08-24T04:56:27;36.85;;;32.90;;
73172;SDS011;61388;54.962;73.394;2022-08-24T04:58:55;44.20;;;33.65;;
73172;SDS011;61388;54.962;73.394;2022-08-24T05:01:23;37.55;;;29.33;;
73172;SDS011;61388;54.962;73.394;2022-08-24T05:03:50;30.95;;;26.42;;
73172;SDS011;61388;54.962;73.394;2022-08-24T05:06:20;35.67;;;30.43;;
73172;SDS011;61388;54.962;73.394;2022-08-24T05:08:46;33.30;;;28.35;;
73172;SDS011;61388;54.962;73.394;2022-08-24T05:11:17;30.73;;;25.52;;
73172;SDS011;61388;54.962;73.394;2022-08-24T05:13:44;31.33;;;28.52;;
73172;SDS011;61388;54.962;73.394;2022-08-24T05:16:16;18.67;;;16.80;;
73172;SDS011;61388;54.962;73.394;2022-08-24T05:18:54;14.43;;;9.63;;
73172;SDS011;61388;54.962;73.394;2022-08-24T05:21:21;15.50;;;9.93;;
73172;SDS011;61388;54.962;73.394;2022-08-24T05:23:49;22.50;;;10.05;;
73172;SDS011;61388;54.962;73.394;2022-08-24T05:26:23;20.73;;;9.95;;
73172;SDS011;61388;54.962;73.394;2022-08-24T05:29:01;14.98;;;10.57;;
73172;SDS011;61388;54.962;73.394;2022-08-24T05:31:37;11.33;;;8.40;;
73172;SDS011;61388;54.962;73.394;2022-08-24T05:34:07;7.95;;;7.10;;
73172;SDS011;61388;54.962;73.394;2022-08-24T05:36:39;12.20;;;9.93;;
73172;SDS011;61388;54.962;73.394;2022-08-24T05:39:10;13.80;;;8.68;;
73172;SDS011;61388;54.962;73.394;2022-08-24T05:41:41;14.75;;;9.40;;
73172;SDS011;61388;54.962;73.394;2022-08-24T05:44:13;14.83;;;8.93;;
73172;SDS011;61388;54.962;73.394;2022-08-24T05:46:41;17.05;;;10.65;;
73172;SDS011;61388;54.962;73.394;2022-08-24T05:49:07;14.57;;;9.32;;
73172;SDS011;61388;54.962;73.394;2022-08-24T05:51:43;16.58;;;10.13;;
73172;SDS011;61388;54.962;73.394;2022-08-24T05:54:11;16.23;;;10.07;;
73172;SDS011;61388;54.962;73.394;2022-08-24T05:56:53;19.30;;;11.77;;
73172;SDS011;61388;54.962;73.394;2022-08-24T05:59:23;20.65;;;10.02;;
73172;SDS011;61388;54.962;73.394;2022-08-24T06:01:51;16.10;;;9.13;;
73172;SDS011;61388;54.962;73.394;2022-08-24T06:04:28;13.15;;;8.73;;
73172;SDS011;61388;54.962;73.394;2022-08-24T06:06:54;16.42;;;9.45;;
73172;SDS011;61388;54.962;73.394;2022-08-24T06:09:20;13.63;;;9.47;;
73172;SDS011;61388;54.962;73.394;2022-08-24T06:11:47;13.40;;;8.93;;
73172;SDS011;61388;54.962;73.394;2022-08-24T06:14:26;16.23;;;9.02;;
73172;SDS011;61388;54.962;73.394;2022-08-24T06:16:56;14.10;;;10.88;;
73172;SDS011;61388;54.962;73.394;2022-08-24T06:19:22;12.30;;;9.95;;
73172;SDS011;61388;54.962;73.394;2022-08-24T06:22:01;12.00;;;8.77;;
73172;SDS011;61388;54.962;73.394;2022-08-24T06:24:35;16.88;;;9.35;;
73172;SDS011;61388;54.962;73.394;2022-08-24T06:27:24;23.27;;;10.10;;
73172;SDS011;61388;54.962;73.394;2022-08-24T06:30:07;21.42;;;11.82;;
73172;SDS011;61388;54.962;73.394;2022-08-24T06:33:00;26.25;;;10.73;;
73172;SDS011;61388;54.962;73.394;2022-08-24T06:35:38;22.70;;;9.30;;
73172;SDS011;61388;54.962;73.394;2022-08-24T06:38:10;22.40;;;9.85;;
73172;SDS011;61388;54.962;73.394;2022-08-24T06:40:36;20.95;;;10.52;;
73172;SDS011;61388;54.962;73.394;2022-08-24T06:43:02;18.75;;;10.15;;
73172;SDS011;61388;54.962;73.394;2022-08-24T06:45:50;26.58;;;9.02;;
73172;SDS011;61388;54.962;73.394;2022-08-24T06:48:17;25.47;;;9.17;;
73172;SDS011;61388;54.962;73.394;2022-08-24T06:50:50;25.33;;;9.35;;
73172;SDS011;61388;54.962;73.394;2022-08-24T06:53:17;27.83;;;8.45;;
73172;SDS011;61388;54.962;73.394;2022-08-24T06:55:56;22.80;;;6.95;;
73172;SDS011;61388;54.962;73.394;2022-08-24T06:58:32;24.35;;;6.90;;
73172;SDS011;61388;54.962;73.394;2022-08-24T07:01:11;24.53;;;6.30;;
73172;SDS011;61388;54.962;73.394;2022-08-24T07:03:43;21.48;;;6.10;;
73172;SDS011;61388;54.962;73.394;2022-08-24T07:06:28;30.83;;;5.63;;
73172;SDS011;61388;54.962;73.394;2022-08-24T07:08:57;27.80;;;6.82;;
73172;SDS011;61388;54.962;73.394;2022-08-24T07:11:35;27.45;;;5.78;;
73172;SDS011;61388;54.962;73.394;2022-08-24T07:14:08;25.87;;;5.73;;
73172;SDS011;61388;54.962;73.394;2022-08-24T07:16:35;27.98;;;5.70;;
73172;SDS011;61388;54.962;73.394;2022-08-24T07:19:02;23.02;;;5.53;;
73172;SDS011;61388;54.962;73.394;2022-08-24T07:21:29;29.20;;;6.38;;
73172;SDS011;61388;54.962;73.394;2022-08-24T07:23:57;37.67;;;6.32;;
73172;SDS011;61388;54.962;73.394;2022-08-24T07:26:25;30.87;;;6.37;;
73172;SDS011;61388;54.962;73.394;2022-08-24T07:28:53;28.85;;;6.95;;
73172;SDS011;61388;54.962;73.394;2022-08-24T07:31:25;21.67;;;6.43;;
73172;SDS011;61388;54.962;73.394;2022-08-24T07:34:03;30.13;;;7.32;;
73172;SDS011;61388;54.962;73.394;2022-08-24T07:36:40;26.13;;;7.05;;
73172;SDS011;61388;54.962;73.394;2022-08-24T07:39:06;29.77;;;7.13;;
73172;SDS011;61388;54.962;73.394;2022-08-24T07:41:41;25.08;;;6.32;;
73172;SDS011;61388;54.962;73.394;2022-08-24T07:44:08;29.58;;;6.68;;
73172;SDS011;61388;54.962;73.394;2022-08-24T07:46:34;27.70;;;6.60;;
73172;SDS011;61388;54.962;73.394;2022-08-24T07:49:02;28.48;;;6.90;;
73172;SDS011;61388;54.962;73.394;2022-08-24T07:51:29;26.63;;;6.03;;
73172;SDS011;61388;54.962;73.394;2022-08-24T07:53:55;20.73;;;6.57;;
73172;SDS011;61388;54.962;73.394;2022-08-24T07:56:27;22.95;;;6.65;;
73172;SDS011;61388;54.962;73.394;2022-08-24T07:58:55;26.10;;;6.45;;
73172;SDS011;61388;54.962;73.394;2022-08-24T08:01:21;21.73;;;6.20;;
73172;SDS011;61388;54.962;73.394;2022-08-24T08:03:48;29.37;;;7.00;;
73172;SDS011;61388;54.962;73.394;2022-08-24T08:06:15;26.00;;;7.00;;
73172;SDS011;61388;54.962;73.394;2022-08-24T08:08:41;30.75;;;7.80;;
73172;SDS011;61388;54.962;73.394;2022-08-24T08:11:09;32.53;;;7.43;;
73172;SDS011;61388;54.962;73.394;2022-08-24T08:13:36;25.25;;;7.57;;
73172;SDS011;61388;54.962;73.394;2022-08-24T08:16:04;30.47;;;7.27;;
73172;SDS011;61388;54.962;73.394;2022-08-24T08:18:30;26.73;;;6.38;;
73172;SDS011;61388;54.962;73.394;2022-08-24T08:21:04;37.33;;;7.93;;
73172;SDS011;61388;54.962;73.394;2022-08-24T08:23:30;32.90;;;7.88;;
73172;SDS011;61388;54.962;73.394;2022-08-24T08:26:30;35.97;;;7.43;;
73172;SDS011;61388;54.962;73.394;2022-08-24T08:29:04;20.80;;;7.10;;
73172;SDS011;61388;54.962;73.394;2022-08-24T08:31:34;25.75;;;6.88;;
73172;SDS011;61388;54.962;73.394;2022-08-24T08:34:03;31.95;;;8.05;;
73172;SDS011;61388;54.962;73.394;2022-08-24T08:36:30;23.40;;;7.10;;
73172;SDS011;61388;54.962;73.394;2022-08-24T08:38:56;26.90;;;7.60;;
73172;SDS011;61388;54.962;73.394;2022-08-24T08:54:55;18.80;;;6.43;;
73172;SDS011;61388;54.962;73.394;2022-08-24T09:08:03;25.17;;;7.73;;
73172;SDS011;61388;54.962;73.394;2022-08-24T09:11:22;25.77;;;7.95;;
73172;SDS011;61388;54.962;73.394;2022-08-24T09:16:37;27.35;;;8.38;;
73172;SDS011;61388;54.962;73.394;2022-08-24T09:19:13;24.58;;;7.70;;
73172;SDS011;61388;54.962;73.394;2022-08-24T09:22:02;26.67;;;7.47;;
73172;SDS011;61388;54.962;73.394;2022-08-24T09:24:48;25.75;;;8.07;;
73172;SDS011;61388;54.962;73.394;2022-08-24T09:30:55;29.45;;;8.20;;
73172;SDS011;61388;54.962;73.394;2022-08-24T09:33:19;36.08;;;8.85;;
73172;SDS011;61388;54.962;73.394;2022-08-24T09:38:16;30.45;;;8.20;;
73172;SDS011;61388;54.962;73.394;2022-08-24T09:40:50;25.67;;;7.47;;
73172;SDS011;61388;54.962;73.394;2022-08-24T09:43:29;22.75;;;7.07;;
73172;SDS011;61388;54.962;73.394;2022-08-24T09:59:20;20.60;;;7.90;;
73172;SDS011;61388;54.962;73.394;2022-08-24T10:05:08;102.30;;;47.38;;
73172;SDS011;61388;54.962;73.394;2022-08-24T10:07:48;21.67;;;8.00;;
73172;SDS011;61388;54.962;73.394;2022-08-24T10:10:19;20.65;;;7.10;;
73172;SDS011;61388;54.962;73.394;2022-08-24T10:13:02;23.60;;;7.35;;
73172;SDS011;61388;54.962;73.394;2022-08-24T10:15:44;24.90;;;7.07;;
73172;SDS011;61388;54.962;73.394;2022-08-24T10:25:57;18.17;;;6.68;;
73172;SDS011;61388;54.962;73.394;2022-08-24T10:36:37;23.58;;;6.00;;
73172;SDS011;61388;54.962;73.394;2022-08-24T10:45:09;15.48;;;6.72;;
73172;SDS011;61388;54.962;73.394;2022-08-24T10:47:41;20.15;;;5.70;;
73172;SDS011;61388;54.962;73.394;2022-08-24T10:53:19;18.20;;;5.75;;
73172;SDS011;61388;54.962;73.394;2022-08-24T10:55:45;17.17;;;6.23;;
73172;SDS011;61388;54.962;73.394;2022-08-24T11:01:01;20.55;;;5.88;;
73172;SDS011;61388;54.962;73.394;2022-08-24T11:03:46;16.27;;;5.47;;
73172;SDS011;61388;54.962;73.394;2022-08-24T11:06:18;26.00;;;9.63;;
73172;SDS011;61388;54.962;73.394;2022-08-24T11:08:52;16.83;;;6.10;;
73172;SDS011;61388;54.962;73.394;2022-08-24T11:11:23;15.68;;;5.03;;
73172;SDS011;61388;54.962;73.394;2022-08-24T11:13:50;15.77;;;4.97;;
73172;SDS011;61388;54.962;73.394;2022-08-24T11:16:29;16.58;;;5.10;;
73172;SDS011;61388;54.962;73.394;2022-08-24T11:18:58;18.88;;;5.95;;
73172;SDS011;61388;54.962;73.394;2022-08-24T11:21:37;19.17;;;5.27;;
73172;SDS011;61388;54.962;73.394;2022-08-24T11:24:22;14.68;;;5.28;;
73172;SDS011;61388;54.962;73.394;2022-08-24T11:26:58;17.77;;;5.68;;
73172;SDS011;61388;54.962;73.394;2022-08-24T11:35:08;17.40;;;6.13;;
73172;SDS011;61388;54.962;73.394;2022-08-24T11:37:39;21.77;;;6.78;;
73172;SDS011;61388;54.962;73.394;2022-08-24T11:40:06;20.83;;;6.72;;
73172;SDS011;61388;54.962;73.394;2022-08-24T11:45:15;13.80;;;6.03;;
73172;SDS011;61388;54.962;73.394;2022-08-24T11:47:47;14.43;;;5.90;;
73172;SDS011;61388;54.962;73.394;2022-08-24T11:50:21;16.83;;;4.68;;
73172;SDS011;61388;54.962;73.394;2022-08-24T11:53:04;13.50;;;4.75;;
73172;SDS011;61388;54.962;73.394;2022-08-24T11:55:33;17.17;;;5.47;;
73172;SDS011;61388;54.962;73.394;2022-08-24T11:58:04;14.50;;;5.32;;
73172;SDS011;61388;54.962;73.394;2022-08-24T12:00:41;18.50;;;5.47;;
73172;SDS011;61388;54.962;73.394;2022-08-24T12:03:31;14.35;;;5.07;;
73172;SDS011;61388;54.962;73.394;2022-08-24T12:06:10;17.48;;;5.75;;
73172;SDS011;61388;54.962;73.394;2022-08-24T12:14:29;13.93;;;3.60;;
73172;SDS011;61388;54.962;73.394;2022-08-24T12:19:27;19.95;;;4.40;;
73172;SDS011;61388;54.962;73.394;2022-08-24T12:21:55;13.23;;;3.65;;
73172;SDS011;61388;54.962;73.394;2022-08-24T12:24:28;12.90;;;3.83;;
73172;SDS011;61388;54.962;73.394;2022-08-24T12:26:57;9.50;;;3.90;;
73172;SDS011;61388;54.962;73.394;2022-08-24T12:29:42;11.35;;;3.40;;
73172;SDS011;61388;54.962;73.394;2022-08-24T12:32:27;11.32;;;4.80;;
73172;SDS011;61388;54.962;73.394;2022-08-24T12:34:57;12.02;;;5.72;;
73172;SDS011;61388;54.962;73.394;2022-08-24T12:37:30;169.13;;;67.22;;
73172;SDS011;61388;54.962;73.394;2022-08-24T12:42:33;9.60;;;3.50;;
73172;SDS011;61388;54.962;73.394;2022-08-24T12:45:05;9.57;;;3.40;;
73172;SDS011;61388;54.962;73.394;2022-08-24T12:47:37;6.53;;;2.92;;
73172;SDS011;61388;54.962;73.394;2022-08-24T12:50:14;8.05;;;3.65;;
73172;SDS011;61388;54.962;73.394;2022-08-24T12:55:17;25.73;;;12.82;;
73172;SDS011;61388;54.962;73.394;2022-08-24T13:00:27;13.88;;;4.07;;
73172;SDS011;61388;54.962;73.394;2022-08-24T13:03:00;8.43;;;3.20;;
73172;SDS011;61388;54.962;73.394;2022-08-24T13:05:44;8.40;;;3.57;;
73172;SDS011;61388;54.962;73.394;2022-08-24T13:08:20;37.85;;;27.67;;
73172;SDS011;61388;54.962;73.394;2022-08-24T13:11:04;13.82;;;5.78;;
73172;SDS011;61388;54.962;73.394;2022-08-24T13:16:09;8.52;;;3.90;;
73172;SDS011;61388;54.962;73.394;2022-08-24T13:18:50;7.83;;;3.70;;
73172;SDS011;61388;54.962;73.394;2022-08-24T13:21:39;10.00;;;3.20;;
73172;SDS011;61388;54.962;73.394;2022-08-24T13:26:50;12.95;;;4.32;;
73172;SDS011;61388;54.962;73.394;2022-08-24T13:29:19;10.23;;;3.60;;
73172;SDS011;61388;54.962;73.394;2022-08-24T13:31:56;13.60;;;4.23;;
73172;SDS011;61388;54.962;73.394;2022-08-24T13:34:43;17.58;;;5.40;;
73172;SDS011;61388;54.962;73.394;2022-08-24T13:37:17;15.07;;;4.43;;
73172;SDS011;61388;54.962;73.394;2022-08-24T13:47:46;12.27;;;4.38;;
73172;SDS011;61388;54.962;73.394;2022-08-24T13:50:27;16.50;;;6.68;;
73172;SDS011;61388;54.962;73.394;2022-08-24T13:55:43;15.98;;;5.40;;
73172;SDS011;61388;54.962;73.394;2022-08-24T14:01:02;21.73;;;6.25;;
73172;SDS011;61388;54.962;73.394;2022-08-24T14:06:23;31.80;;;6.20;;
73172;SDS011;61388;54.962;73.394;2022-08-24T14:11:35;40.73;;;6.53;;
73172;SDS011;61388;54.962;73.394;2022-08-24T14:16:47;33.38;;;7.40;;
73172;SDS011;61388;54.962;73.394;2022-08-24T14:20:18;43.35;;;7.45;;
73172;SDS011;61388;54.962;73.394;2022-08-24T14:22:51;33.67;;;7.43;;
73172;SDS011;61388;54.962;73.394;2022-08-24T14:25:34;54.10;;;8.70;;
73172;SDS011;61388;54.962;73.394;2022-08-24T14:38:13;34.20;;;10.20;;
73172;SDS011;61388;54.962;73.394;2022-08-24T14:43:41;38.28;;;12.70;;
73172;SDS011;61388;54.962;73.394;2022-08-24T14:49:04;49.40;;;15.38;;
73172;SDS011;61388;54.962;73.394;2022-08-24T14:51:40;47.50;;;15.80;;
73172;SDS011;61388;54.962;73.394;2022-08-24T14:56:46;40.15;;;17.85;;
73172;SDS011;61388;54.962;73.394;2022-08-24T15:07:36;47.38;;;16.30;;
73172;SDS011;61388;54.962;73.394;2022-08-24T15:10:09;105.57;;;58.50;;
73172;SDS011;61388;54.962;73.394;2022-08-24T15:15:26;70.93;;;39.05;;
73172;SDS011;61388;54.962;73.394;2022-08-24T15:20:27;66.65;;;25.38;;
73172;SDS011;61388;54.962;73.394;2022-08-24T15:23:32;49.38;;;21.15;;
73172;SDS011;61388;54.962;73.394;2022-08-24T15:26:09;46.10;;;15.73;;
73172;SDS011;61388;54.962;73.394;2022-08-24T15:28:37;47.58;;;16.45;;
73172;SDS011;61388;54.962;73.394;2022-08-24T15:31:12;38.43;;;12.47;;
73172;SDS011;61388;54.962;73.394;2022-08-24T15:33:54;47.88;;;15.52;;
73172;SDS011;61388;54.962;73.394;2022-08-24T15:36:31;58.42;;;17.23;;
73172;SDS011;61388;54.962;73.394;2022-08-24T15:39:04;69.05;;;34.00;;
73172;SDS011;61388;54.962;73.394;2022-08-24T15:41:35;69.70;;;30.58;;
73172;SDS011;61388;54.962;73.394;2022-08-24T15:44:05;48.83;;;21.73;;
73172;SDS011;61388;54.962;73.394;2022-08-24T15:46:36;53.03;;;18.10;;
73172;SDS011;61388;54.962;73.394;2022-08-24T15:59:28;44.60;;;12.40;;
73172;SDS011;61388;54.962;73.394;2022-08-24T16:02:16;42.50;;;12.93;;
73172;SDS011;61388;54.962;73.394;2022-08-24T16:07:29;52.40;;;13.38;;
73172;SDS011;61388;54.962;73.394;2022-08-24T16:10:04;58.30;;;16.77;;
73172;SDS011;61388;54.962;73.394;2022-08-24T16:12:30;46.65;;;15.98;;
73172;SDS011;61388;54.962;73.394;2022-08-24T16:17:55;75.40;;;31.92;;
73172;SDS011;61388;54.962;73.394;2022-08-24T16:22:51;47.53;;;16.93;;
73172;SDS011;61388;54.962;73.394;2022-08-24T16:25:23;48.35;;;17.27;;
73172;SDS011;61388;54.962;73.394;2022-08-24T16:28:00;49.67;;;19.02;;
73172;SDS011;61388;54.962;73.394;2022-08-24T16:33:03;55.53;;;18.25;;
73172;SDS011;61388;54.962;73.394;2022-08-24T16:35:29;88.77;;;38.63;;
73172;SDS011;61388;54.962;73.394;2022-08-24T16:38:02;74.78;;;30.85;;
73172;SDS011;61388;54.962;73.394;2022-08-24T16:40:29;63.53;;;23.85;;
73172;SDS011;61388;54.962;73.394;2022-08-24T16:42:57;50.60;;;19.73;;
73172;SDS011;61388;54.962;73.394;2022-08-24T16:45:29;61.03;;;20.27;;
73172;SDS011;61388;54.962;73.394;2022-08-24T16:47:59;56.67;;;20.73;;
73172;SDS011;61388;54.962;73.394;2022-08-24T16:50:26;52.20;;;20.33;;
73172;SDS011;61388;54.962;73.394;2022-08-24T16:52:52;54.67;;;20.55;;
73172;SDS011;61388;54.962;73.394;2022-08-24T16:55:18;66.25;;;21.08;;
73172;SDS011;61388;54.962;73.394;2022-08-24T16:57:45;66.65;;;22.50;;
73172;SDS011;61388;54.962;73.394;2022-08-24T17:00:14;62.07;;;21.37;;
73172;SDS011;61388;54.962;73.394;2022-08-24T17:02:42;70.97;;;23.20;;
73172;SDS011;61388;54.962;73.394;2022-08-24T17:05:09;52.25;;;19.48;;
73172;SDS011;61388;54.962;73.394;2022-08-24T17:07:36;65.90;;;18.83;;
73172;SDS011;61388;54.962;73.394;2022-08-24T17:10:02;54.35;;;19.52;;
73172;SDS011;61388;54.962;73.394;2022-08-24T17:12:29;57.00;;;17.93;;
73172;SDS011;61388;54.962;73.394;2022-08-24T17:15:01;50.28;;;18.83;;
73172;SDS011;61388;54.962;73.394;2022-08-24T17:17:28;54.70;;;21.17;;
73172;SDS011;61388;54.962;73.394;2022-08-24T17:20:08;46.67;;;20.63;;
73172;SDS011;61388;54.962;73.394;2022-08-24T17:22:40;50.58;;;21.25;;
73172;SDS011;61388;54.962;73.394;2022-08-24T17:25:06;54.43;;;22.37;;
73172;SDS011;61388;54.962;73.394;2022-08-24T17:27:33;56.92;;;21.30;;
73172;SDS011;61388;54.962;73.394;2022-08-24T17:30:00;51.83;;;21.25;;
73172;SDS011;61388;54.962;73.394;2022-08-24T17:32:30;56.25;;;20.95;;
73172;SDS011;61388;54.962;73.394;2022-08-24T17:34:56;54.28;;;21.95;;
73172;SDS011;61388;54.962;73.394;2022-08-24T17:37:31;53.20;;;20.63;;
73172;SDS011;61388;54.962;73.394;2022-08-24T17:43:18;59.40;;;22.27;;
73172;SDS011;61388;54.962;73.394;2022-08-24T17:45:45;73.93;;;22.77;;
73172;SDS011;61388;54.962;73.394;2022-08-24T17:48:12;58.05;;;20.98;;
73172;SDS011;61388;54.962;73.394;2022-08-24T17:50:41;58.73;;;22.10;;
73172;SDS011;61388;54.962;73.394;2022-08-24T17:53:08;46.40;;;19.40;;
73172;SDS011;61388;54.962;73.394;2022-08-24T17:55:34;57.75;;;22.67;;
73172;SDS011;61388;54.962;73.394;2022-08-24T17:58:11;54.08;;;22.85;;
73172;SDS011;61388;54.962;73.394;2022-08-24T18:00:41;52.78;;;21.38;;
73172;SDS011;61388;54.962;73.394;2022-08-24T18:03:07;51.17;;;21.93;;
73172;SDS011;61388;54.962;73.394;2022-08-24T18:05:38;56.33;;;24.55;;
73172;SDS011;61388;54.962;73.394;2022-08-24T18:08:05;52.50;;;25.33;;
73172;SDS011;61388;54.962;73.394;2022-08-24T18:10:32;51.38;;;24.58;;
73172;SDS011;61388;54.962;73.394;2022-08-24T18:13:07;54.25;;;24.42;;
73172;SDS011;61388;54.962;73.394;2022-08-24T18:15:34;54.17;;;25.50;;
73172;SDS011;61388;54.962;73.394;2022-08-24T18:18:09;56.25;;;27.73;;
73172;SDS011;61388;54.962;73.394;2022-08-24T18:20:37;51.28;;;28.38;;
73172;SDS011;61388;54.962;73.394;2022-08-24T18:23:03;53.58;;;27.63;;
73172;SDS011;61388;54.962;73.394;2022-08-24T18:25:31;59.05;;;29.08;;
73172;SDS011;61388;54.962;73.394;2022-08-24T18:28:00;55.10;;;27.97;;
73172;SDS011;61388;54.962;73.394;2022-08-24T18:30:37;48.92;;;27.33;;
73172;SDS011;61388;54.962;73.394;2022-08-24T18:33:06;47.00;;;29.92;;
73172;SDS011;61388;54.962;73.394;2022-08-24T18:35:33;65.90;;;32.40;;
73172;SDS011;61388;54.962;73.394;2022-08-24T18:37:59;59.15;;;33.03;;
73172;SDS011;61388;54.962;73.394;2022-08-24T18:40:26;55.50;;;34.50;;
73172;SDS011;61388;54.962;73.394;2022-08-24T18:42:53;66.07;;;39.83;;
73172;SDS011;61388;54.962;73.394;2022-08-24T18:45:20;63.53;;;48.53;;
73172;SDS011;61388;54.962;73.394;2022-08-24T18:47:46;63.92;;;40.10;;
73172;SDS011;61388;54.962;73.394;2022-08-24T18:50:20;65.55;;;44.42;;
73172;SDS011;61388;54.962;73.394;2022-08-24T18:52:51;73.37;;;46.43;;
73172;SDS011;61388;54.962;73.394;2022-08-24T18:55:17;65.30;;;47.38;;
73172;SDS011;61388;54.962;73.394;2022-08-24T18:57:43;75.82;;;50.33;;
73172;SDS011;61388;54.962;73.394;2022-08-24T19:00:20;71.35;;;50.00;;
73172;SDS011;61388;54.962;73.394;2022-08-24T19:02:46;73.53;;;49.85;;
73172;SDS011;61388;54.962;73.394;2022-08-24T19:05:20;69.40;;;45.97;;
73172;SDS011;61388;54.962;73.394;2022-08-24T19:07:49;80.38;;;45.15;;
73172;SDS011;61388;54.962;73.394;2022-08-24T19:10:17;65.70;;;42.20;;
73172;SDS011;61388;54.962;73.394;2022-08-24T19:12:44;68.53;;;41.05;;